Time;durP1;ratioP1;P1;durP2;ratioP2;P2;SDS_P1;SDS_P2;PMS_P1;PMS_P2;Temp;Humidity;BMP_temperature;BMP_pressure;BME280_temperature;BME280_humidity;BME280_pressure;Samples;Min_cycle;Max_cycle;Signal;HPM_P1;HPM_P2
2021/08/03 00:01:05;;;;;;;4.13;2.20;;;19.10;99.90;;;;;;4989718;28;20441;-72
2021/08/03 00:03:38;;;;;;;2.90;2.70;;;19.20;99.90;;;;;;4990337;28;20722;-72
2021/08/03 00:06:12;;;;;;;3.17;2.50;;;19.30;99.90;;;;;;4984705;28;20485;-72
2021/08/03 00:08:44;;;;;;;2.67;2.00;;;18.90;99.90;;;;;;4973633;28;21012;-73
2021/08/03 00:11:10;;;;;;;2.73;2.17;;;18.80;99.90;;;;;;4977639;28;20565;-72
2021/08/03 00:13:37;;;;;;;3.53;2.30;;;18.90;99.90;;;;;;4989974;28;20464;-72
2021/08/03 00:16:08;;;;;;;2.50;2.30;;;18.80;99.90;;;;;;4989764;28;20496;-72
2021/08/03 00:18:38;;;;;;;2.33;2.13;;;18.60;99.90;;;;;;4989596;28;20464;-72
2021/08/03 00:21:05;;;;;;;2.83;2.53;;;18.80;99.90;;;;;;4990597;28;20445;-72
2021/08/03 00:23:31;;;;;;;2.40;2.20;;;18.60;99.90;;;;;;4993674;28;20428;-72
2021/08/03 00:25:57;;;;;;;2.50;2.30;;;18.50;99.90;;;;;;4989771;28;20461;-73
2021/08/03 00:28:24;;;;;;;3.20;2.97;;;18.60;99.90;;;;;;4990636;28;20830;-73
2021/08/03 00:30:50;;;;;;;3.30;2.27;;;18.60;99.90;;;;;;4991100;28;20463;-72
2021/08/03 00:33:17;;;;;;;3.03;2.47;;;18.90;99.90;;;;;;4989538;28;20437;-71
2021/08/03 00:35:43;;;;;;;2.30;2.10;;;18.90;99.90;;;;;;4991996;28;20479;-71
2021/08/03 00:38:09;;;;;;;2.63;2.37;;;19.10;99.90;;;;;;4989995;28;20467;-71
2021/08/03 00:40:40;;;;;;;2.60;2.40;;;19.10;99.90;;;;;;4992364;28;20440;-71
2021/08/03 00:43:06;;;;;;;4.23;2.33;;;18.90;99.90;;;;;;4988304;28;20173;-71
2021/08/03 00:45:33;;;;;;;2.33;2.13;;;19.00;99.90;;;;;;4989795;28;20469;-72
2021/08/03 00:47:59;;;;;;;2.70;2.30;;;19.00;99.90;;;;;;4990566;28;20937;-72
2021/08/03 00:50:25;;;;;;;2.20;2.00;;;19.30;99.90;;;;;;4989750;28;20445;-72
2021/08/03 00:52:51;;;;;;;3.60;2.00;;;19.30;99.90;;;;;;4989351;28;20204;-71
2021/08/03 00:55:16;;;;;;;2.10;1.90;;;19.40;99.90;;;;;;4989057;28;20544;-71
2021/08/03 00:57:42;;;;;;;2.27;2.07;;;19.20;99.90;;;;;;4988271;28;20337;-71
2021/08/03 01:00:08;;;;;;;2.90;2.37;;;19.10;99.90;;;;;;4988431;28;20663;-71
2021/08/03 01:02:34;;;;;;;2.30;2.10;;;19.20;99.90;;;;;;4989120;28;20500;-72
2021/08/03 01:05:00;;;;;;;2.40;2.10;;;19.10;99.90;;;;;;4989250;28;20454;-72
2021/08/03 01:07:54;;;;;;;3.33;2.60;;;19.20;99.90;;;;;;4980429;28;20213;-72
2021/08/03 01:10:44;;;;;;;3.03;2.20;;;19.20;99.90;;;;;;4986934;28;20438;-72
2021/08/03 01:13:37;;;;;;;2.80;2.23;;;19.20;99.90;;;;;;4990914;28;20954;-74
2021/08/03 01:16:21;;;;;;;2.70;2.17;;;19.00;99.90;;;;;;4990381;28;20468;-73
2021/08/03 01:19:13;;;;;;;2.43;2.20;;;18.90;99.90;;;;;;4987664;28;20969;-73
2021/08/03 01:22:29;;;;;;;3.57;2.20;;;18.80;99.90;;;;;;4990605;28;20471;-73
2021/08/03 01:24:58;;;;;;;5.43;2.70;;;18.60;99.90;;;;;;4964745;28;20458;-72
2021/08/03 01:27:41;;;;;;;2.57;2.30;;;18.50;99.90;;;;;;4988767;28;20432;-72
2021/08/03 01:30:08;;;;;;;5.40;2.27;;;18.40;99.90;;;;;;4984950;28;20818;-72
2021/08/03 01:32:39;;;;;;;2.57;2.37;;;18.50;99.90;;;;;;4988845;28;20524;-72
2021/08/03 01:35:07;;;;;;;2.67;2.30;;;18.40;99.90;;;;;;4988086;28;21008;-71
2021/08/03 01:37:34;;;;;;;2.73;2.53;;;18.40;99.90;;;;;;4988003;28;20467;-73
2021/08/03 01:40:12;;;;;;;3.90;2.10;;;18.30;99.90;;;;;;4990762;28;20942;-72
2021/08/03 01:42:43;;;;;;;2.70;2.50;;;18.10;99.90;;;;;;4988929;28;20444;-72
2021/08/03 01:45:11;;;;;;;2.70;2.30;;;17.90;99.90;;;;;;4986472;28;20472;-71
2021/08/03 01:47:37;;;;;;;3.50;2.37;;;17.80;99.90;;;;;;4990944;28;20788;-72
2021/08/03 01:50:05;;;;;;;2.40;2.20;;;18.10;99.90;;;;;;4989031;28;20480;-72
2021/08/03 01:52:32;;;;;;;2.60;2.40;;;17.90;99.90;;;;;;4990320;28;20221;-72
2021/08/03 01:55:04;;;;;;;3.23;2.20;;;17.90;99.90;;;;;;4988761;28;20456;-72
2021/08/03 01:57:31;;;;;;;2.90;2.60;;;17.90;99.90;;;;;;4988069;28;20479;-72
2021/08/03 01:59:58;;;;;;;2.80;2.50;;;18.00;99.90;;;;;;4990267;28;20441;-72
2021/08/03 02:02:24;;;;;;;2.43;2.23;;;17.70;99.90;;;;;;4987385;28;21290;-72
2021/08/03 02:04:51;;;;;;;3.20;2.40;;;17.60;99.90;;;;;;4987688;28;20441;-72
2021/08/03 02:07:20;;;;;;;2.80;2.60;;;17.70;99.90;;;;;;4987735;28;20440;-72
2021/08/03 02:09:46;;;;;;;3.10;2.53;;;17.80;99.90;;;;;;4986901;28;20450;-72
2021/08/03 02:12:13;;;;;;;2.60;2.40;;;17.60;99.90;;;;;;4988336;28;20437;-72
2021/08/03 02:14:45;;;;;;;4.30;2.50;;;17.70;99.90;;;;;;4987457;28;20447;-72
2021/08/03 02:17:21;;;;;;;3.63;2.20;;;17.80;99.90;;;;;;4988210;28;20471;-72
2021/08/03 02:19:48;;;;;;;5.23;2.90;;;17.70;99.90;;;;;;4970791;28;20447;-72
2021/08/03 02:22:15;;;;;;;3.00;2.50;;;17.70;99.90;;;;;;4989366;28;20815;-73
2021/08/03 02:24:41;;;;;;;4.73;2.40;;;17.60;99.90;;;;;;4989504;28;20457;-73
2021/08/03 02:27:07;;;;;;;6.40;2.33;;;17.70;99.90;;;;;;4987078;28;20499;-73
2021/08/03 02:29:34;;;;;;;2.60;2.40;;;17.50;99.90;;;;;;4986793;28;20455;-73
2021/08/03 02:32:17;;;;;;;5.97;3.10;;;17.50;99.90;;;;;;4987095;28;20188;-73
2021/08/03 02:35:22;;;;;;;2.50;2.30;;;17.60;99.90;;;;;;4987343;28;20444;-73
2021/08/03 02:37:58;;;;;;;3.97;2.37;;;17.60;99.90;;;;;;4986820;28;20974;-73
2021/08/03 02:40:24;;;;;;;3.23;2.43;;;17.50;99.90;;;;;;4988075;28;20447;-72
2021/08/03 02:42:52;;;;;;;2.87;2.67;;;17.40;99.90;;;;;;4989638;28;20441;-72
2021/08/03 02:45:19;;;;;;;2.90;2.63;;;17.30;99.90;;;;;;4985793;28;20213;-72
2021/08/03 02:47:51;;;;;;;3.60;2.30;;;17.30;99.90;;;;;;4989387;28;20460;-72
2021/08/03 02:50:19;;;;;;;5.70;2.33;;;17.30;99.90;;;;;;4972763;28;20475;-72
2021/08/03 02:52:46;;;;;;;3.23;2.37;;;17.40;99.90;;;;;;4987174;28;20448;-72
2021/08/03 02:55:30;;;;;;;5.10;2.30;;;17.70;99.90;;;;;;4989474;28;20468;-72
2021/08/03 02:58:02;;;;;;;2.40;2.20;;;17.80;99.90;;;;;;4989654;28;20460;-71
2021/08/03 03:00:32;;;;;;;4.00;2.50;;;17.80;99.90;;;;;;4988364;28;20431;-72
2021/08/03 03:02:59;;;;;;;2.60;2.40;;;17.70;99.90;;;;;;4988266;28;20460;-72
2021/08/03 03:05:31;;;;;;;2.93;2.47;;;17.70;99.90;;;;;;4984540;28;20843;-72
2021/08/03 03:08:05;;;;;;;5.80;2.63;;;17.80;99.90;;;;;;4989295;28;20484;-72
2021/08/03 03:10:33;;;;;;;3.17;2.40;;;17.60;99.90;;;;;;4984529;28;21239;-72
2021/08/03 03:13:31;;;;;;;3.63;2.50;;;17.60;99.90;;;;;;4985344;28;20453;-72
2021/08/03 03:15:59;;;;;;;3.60;2.10;;;17.60;99.90;;;;;;4986946;28;20554;-72
2021/08/03 03:18:25;;;;;;;2.33;2.13;;;17.60;99.90;;;;;;4984769;28;20819;-72
2021/08/03 03:20:51;;;;;;;3.00;2.17;;;17.50;99.90;;;;;;4985841;28;20456;-72
2021/08/03 03:23:20;;;;;;;4.13;2.47;;;17.70;99.90;;;;;;4988464;28;20436;-72
2021/08/03 03:25:49;;;;;;;2.17;2.07;;;17.80;99.90;;;;;;4986231;28;20476;-73
2021/08/03 03:28:18;;;;;;;2.63;2.43;;;17.40;99.90;;;;;;4993437;28;20490;-72
2021/08/03 03:30:45;;;;;;;2.50;2.30;;;17.50;99.90;;;;;;4988016;28;21896;-73
2021/08/03 03:33:13;;;;;;;4.20;2.20;;;17.20;99.90;;;;;;4988075;28;20532;-72
2021/08/03 03:35:40;;;;;;;3.13;2.47;;;17.20;99.90;;;;;;4991816;28;20567;-72
2021/08/03 03:38:06;;;;;;;3.10;2.63;;;17.30;99.90;;;;;;4990561;28;20471;-72
2021/08/03 03:40:33;;;;;;;2.83;2.40;;;17.40;99.90;;;;;;4992176;28;20451;-72
2021/08/03 03:42:59;;;;;;;3.30;2.40;;;17.30;99.90;;;;;;4991467;28;20843;-72
2021/08/03 03:45:25;;;;;;;3.87;2.10;;;17.40;99.90;;;;;;4991716;28;20465;-72
2021/08/03 03:48:01;;;;;;;2.97;2.20;;;17.40;99.90;;;;;;4992597;28;20448;-73
2021/08/03 03:50:31;;;;;;;4.33;2.20;;;17.30;99.90;;;;;;4993127;28;20444;-73
2021/08/03 03:53:19;;;;;;;4.80;2.50;;;17.40;99.90;;;;;;4991254;28;21005;-72
2021/08/03 03:55:51;;;;;;;3.90;2.63;;;17.30;99.90;;;;;;4990907;28;20793;-72
2021/08/03 03:58:18;;;;;;;2.40;2.20;;;17.30;99.90;;;;;;4990174;28;20472;-72
2021/08/03 04:00:44;;;;;;;2.60;2.23;;;17.30;99.90;;;;;;4989507;28;20441;-72
2021/08/03 04:03:11;;;;;;;2.90;2.60;;;17.40;99.90;;;;;;4991995;28;20448;-72
2021/08/03 04:05:41;;;;;;;4.00;2.80;;;17.60;99.90;;;;;;4989335;28;20471;-72
2021/08/03 04:08:08;;;;;;;3.10;2.47;;;17.60;99.90;;;;;;4990838;28;20530;-73
2021/08/03 04:10:36;;;;;;;3.30;2.93;;;17.70;99.90;;;;;;4995503;28;20436;-73
2021/08/03 04:13:03;;;;;;;3.73;2.73;;;17.70;99.90;;;;;;4994830;28;20531;-72
2021/08/03 04:15:31;;;;;;;3.80;2.90;;;17.80;99.90;;;;;;4990234;28;20857;-73
2021/08/03 04:17:57;;;;;;;3.43;2.33;;;17.50;99.90;;;;;;4991226;28;21478;-73
2021/08/03 04:20:23;;;;;;;3.03;2.40;;;17.40;99.90;;;;;;4992591;28;20448;-73
2021/08/03 04:22:49;;;;;;;4.00;2.73;;;17.40;99.90;;;;;;4990172;28;20197;-73
2021/08/03 04:25:14;;;;;;;3.60;2.70;;;17.30;99.90;;;;;;4989499;28;20460;-73
2021/08/03 04:27:40;;;;;;;2.60;2.40;;;17.40;99.90;;;;;;4990442;28;20201;-73
2021/08/03 04:30:08;;;;;;;2.80;2.60;;;17.40;99.90;;;;;;4991381;28;20197;-73
2021/08/03 04:32:34;;;;;;;6.43;3.33;;;17.50;99.90;;;;;;4991756;28;20198;-73
2021/08/03 04:35:00;;;;;;;3.03;2.83;;;17.70;99.90;;;;;;4990786;28;20517;-73
2021/08/03 04:37:26;;;;;;;6.20;2.93;;;17.50;99.90;;;;;;4988544;28;20213;-72
2021/08/03 04:39:52;;;;;;;4.13;3.00;;;17.40;99.90;;;;;;4992162;28;20460;-73
2021/08/03 04:42:17;;;;;;;3.47;3.00;;;17.50;99.90;;;;;;4989481;28;20248;-73
2021/08/03 04:44:43;;;;;;;2.60;2.40;;;17.50;99.90;;;;;;4988557;28;20278;-73
2021/08/03 04:47:09;;;;;;;3.10;2.30;;;17.60;99.90;;;;;;4990024;28;20537;-73
2021/08/03 04:49:34;;;;;;;2.60;2.40;;;17.70;99.90;;;;;;4989847;28;20204;-73
2021/08/03 04:52:06;;;;;;;3.80;2.67;;;17.90;99.90;;;;;;4989290;28;20239;-73
2021/08/03 04:54:32;;;;;;;3.97;2.60;;;17.60;99.90;;;;;;4990053;28;20280;-73
2021/08/03 04:56:58;;;;;;;3.27;2.47;;;17.30;99.90;;;;;;4993694;28;21017;-73
2021/08/03 04:59:23;;;;;;;2.93;2.60;;;17.50;99.90;;;;;;4995258;28;20217;-73
2021/08/03 05:01:49;;;;;;;2.93;2.67;;;17.50;99.90;;;;;;4995827;28;20732;-73
2021/08/03 05:04:14;;;;;;;3.33;3.03;;;17.70;99.90;;;;;;4989401;28;20730;-73
2021/08/03 05:06:40;;;;;;;3.53;3.00;;;17.70;99.90;;;;;;4990054;28;20240;-71
2021/08/03 05:09:06;;;;;;;3.57;3.27;;;17.80;99.90;;;;;;4986301;28;20283;-71
2021/08/03 05:11:31;;;;;;;3.47;3.17;;;17.60;99.90;;;;;;4990524;28;20201;-73
2021/08/03 05:13:57;;;;;;;4.23;3.10;;;17.30;99.90;;;;;;4987922;28;20197;-72
2021/08/03 05:16:24;;;;;;;5.10;3.00;;;17.40;99.90;;;;;;4989208;28;20237;-71
2021/08/03 05:18:50;;;;;;;4.03;3.00;;;17.80;99.90;;;;;;4988546;28;20274;-71
2021/08/03 05:21:16;;;;;;;4.77;3.23;;;17.60;99.90;;;;;;4987848;28;20449;-71
2021/08/03 05:23:41;;;;;;;3.00;2.43;;;17.80;99.90;;;;;;4994702;28;20702;-71
2021/08/03 05:26:13;;;;;;;3.10;2.70;;;17.80;99.90;;;;;;4995946;28;20194;-72
2021/08/03 05:28:39;;;;;;;3.60;3.00;;;17.80;99.90;;;;;;4990133;28;20198;-72
2021/08/03 05:31:04;;;;;;;3.33;2.80;;;18.10;99.90;;;;;;4985387;28;20459;-71
2021/08/03 05:33:30;;;;;;;4.43;3.10;;;18.40;99.90;;;;;;4988117;28;20200;-71
2021/08/03 05:35:56;;;;;;;3.23;2.93;;;18.60;99.90;;;;;;4987162;28;20226;-71
2021/08/03 05:38:21;;;;;;;3.30;2.83;;;18.80;99.90;;;;;;4991748;28;20224;-72
2021/08/03 05:40:47;;;;;;;3.43;2.60;;;18.90;99.90;;;;;;4985758;28;21179;-72
2021/08/03 05:43:13;;;;;;;3.37;2.50;;;18.90;99.90;;;;;;4988690;28;20695;-73
2021/08/03 05:45:39;;;;;;;2.60;2.40;;;18.90;99.90;;;;;;4988081;28;20209;-72
2021/08/03 05:48:05;;;;;;;3.73;3.20;;;18.80;99.90;;;;;;4990445;28;20190;-72
2021/08/03 05:50:30;;;;;;;3.90;3.00;;;19.00;99.90;;;;;;4993940;28;20812;-72
2021/08/03 05:52:56;;;;;;;3.63;2.30;;;19.00;99.90;;;;;;4986511;28;20521;-73
2021/08/03 05:55:21;;;;;;;4.23;2.93;;;19.20;99.90;;;;;;4990357;28;20888;-72
2021/08/03 05:57:47;;;;;;;4.60;2.80;;;19.20;99.90;;;;;;4987487;28;20304;-72
2021/08/03 06:00:14;;;;;;;2.70;2.50;;;19.30;99.90;;;;;;4989305;28;20208;-72
2021/08/03 06:02:39;;;;;;;2.67;2.47;;;19.40;99.90;;;;;;4970055;28;20610;-71
2021/08/03 06:05:06;;;;;;;4.50;2.80;;;19.50;99.90;;;;;;4988271;28;20479;-72
2021/08/03 06:07:41;;;;;;;4.27;2.70;;;19.60;99.90;;;;;;4997575;28;20204;-72
2021/08/03 06:10:14;;;;;;;3.00;2.70;;;19.60;99.90;;;;;;4983469;28;20465;-72
2021/08/03 06:12:45;;;;;;;5.70;2.60;;;19.70;99.90;;;;;;4988402;28;20474;-72
2021/08/03 06:15:10;;;;;;;4.20;3.80;;;19.80;99.90;;;;;;4989696;28;21043;-72
2021/08/03 06:17:38;;;;;;;3.23;2.50;;;19.80;99.90;;;;;;4985538;28;20472;-72
2021/08/03 06:20:07;;;;;;;2.70;2.50;;;19.80;99.90;;;;;;4988327;28;20189;-72
2021/08/03 06:22:37;;;;;;;3.10;2.80;;;19.70;99.90;;;;;;4989510;28;20531;-72
2021/08/03 06:25:05;;;;;;;4.70;3.00;;;19.80;99.90;;;;;;4983853;28;21648;-72
2021/08/03 06:27:31;;;;;;;2.67;2.47;;;19.50;99.90;;;;;;4985776;28;20444;-72
2021/08/03 06:30:02;;;;;;;6.00;2.90;;;19.70;99.90;;;;;;4987916;28;20443;-72
2021/08/03 06:32:27;;;;;;;3.20;2.63;;;19.80;99.90;;;;;;4986033;28;20453;-72
2021/08/03 06:34:53;;;;;;;2.70;2.50;;;19.80;99.90;;;;;;4968454;28;21033;-72
2021/08/03 06:37:19;;;;;;;3.37;2.60;;;19.40;99.90;;;;;;4988146;28;20185;-71
2021/08/03 06:39:44;;;;;;;2.97;2.67;;;19.50;99.90;;;;;;4987736;28;20186;-71
2021/08/03 06:42:38;;;;;;;5.47;3.07;;;19.40;99.90;;;;;;4987630;28;20193;-71
2021/08/03 06:45:11;;;;;;;5.27;3.70;;;19.20;99.90;;;;;;4987539;28;20200;-71
2021/08/03 06:48:11;;;;;;;3.23;2.93;;;19.00;99.90;;;;;;4987650;28;20503;-72
2021/08/03 06:50:57;;;;;;;2.20;2.00;;;18.90;99.90;;;;;;4989912;28;20455;-71
2021/08/03 06:53:26;;;;;;;3.60;2.53;;;18.90;99.90;;;;;;4986314;28;20500;-72
2021/08/03 06:55:55;;;;;;;3.90;2.50;;;18.70;99.90;;;;;;4990255;28;20468;-73
2021/08/03 06:58:46;;;;;;;2.93;2.63;;;18.40;99.90;;;;;;4971914;28;20483;-72
2021/08/03 07:01:34;;;;;;;3.77;2.77;;;18.30;99.90;;;;;;4987496;28;20446;-71
2021/08/03 07:04:03;;;;;;;3.50;2.17;;;18.30;99.90;;;;;;4993151;28;20436;-73
2021/08/03 07:06:32;;;;;;;3.80;2.43;;;18.40;99.90;;;;;;4992142;28;20518;-73
2021/08/03 07:08:59;;;;;;;3.57;2.40;;;18.30;99.90;;;;;;4993328;28;20448;-72
2021/08/03 07:11:29;;;;;;;3.17;2.63;;;18.20;99.90;;;;;;4995881;28;20445;-73
2021/08/03 07:13:57;;;;;;;3.90;2.47;;;18.10;99.90;;;;;;4991512;28;20444;-73
2021/08/03 07:16:24;;;;;;;4.30;3.77;;;17.90;99.90;;;;;;4990918;28;20478;-73
2021/08/03 07:18:50;;;;;;;3.30;3.00;;;17.90;99.90;;;;;;4994123;28;20563;-73
2021/08/03 07:21:17;;;;;;;4.90;2.97;;;17.70;99.90;;;;;;4989144;28;20444;-71
2021/08/03 07:23:44;;;;;;;3.33;2.70;;;17.70;99.90;;;;;;4989391;28;20808;-71
2021/08/03 07:26:09;;;;;;;3.77;3.30;;;17.80;99.90;;;;;;4990598;28;21110;-71
2021/08/03 07:28:35;;;;;;;3.07;2.87;;;17.90;99.90;;;;;;4987816;28;20456;-71
2021/08/03 07:31:01;;;;;;;4.00;2.90;;;17.70;99.90;;;;;;4994805;28;20514;-72
2021/08/03 07:33:27;;;;;;;6.23;4.20;;;17.90;99.90;;;;;;4993913;28;20220;-70
2021/08/03 07:36:02;;;;;;;7.13;3.60;;;17.90;99.90;;;;;;4997934;28;20488;-72
2021/08/03 07:38:28;;;;;;;4.33;3.00;;;18.00;99.90;;;;;;4998024;28;20227;-71
2021/08/03 07:40:54;;;;;;;3.23;2.83;;;18.10;99.90;;;;;;4995372;28;20596;-71
2021/08/03 07:43:19;;;;;;;4.33;3.93;;;18.10;99.90;;;;;;4994198;28;20222;-71
2021/08/03 07:45:45;;;;;;;4.03;3.53;;;18.20;99.90;;;;;;4998011;28;20699;-72
2021/08/03 07:48:11;;;;;;;4.30;3.20;;;18.00;99.90;;;;;;4992515;28;20712;-73
2021/08/03 07:50:37;;;;;;;4.57;3.07;;;17.80;99.90;;;;;;4997850;28;20216;-72
2021/08/03 07:53:02;;;;;;;4.27;3.90;;;17.70;99.90;;;;;;4995657;28;20202;-72
2021/08/03 07:55:28;;;;;;;4.53;3.63;;;17.60;99.90;;;;;;4997964;28;20484;-73
2021/08/03 07:57:54;;;;;;;4.93;3.20;;;17.60;99.90;;;;;;4993272;28;20221;-72
2021/08/03 08:00:19;;;;;;;5.07;3.33;;;17.50;99.90;;;;;;4992083;28;20202;-71
2021/08/03 08:02:45;;;;;;;3.50;2.97;;;17.50;99.90;;;;;;4994139;28;20269;-72
2021/08/03 08:05:11;;;;;;;6.20;3.70;;;17.50;99.90;;;;;;4994028;28;20222;-72
2021/08/03 08:07:37;;;;;;;3.73;3.37;;;17.30;99.90;;;;;;4997567;28;20228;-72
2021/08/03 08:10:03;;;;;;;5.33;3.83;;;17.40;99.90;;;;;;5013242;28;20184;-71
2021/08/03 08:12:28;;;;;;;3.77;3.27;;;17.40;99.90;;;;;;5019124;28;20201;-71
2021/08/03 08:14:54;;;;;;;4.10;3.43;;;17.50;99.90;;;;;;5017049;28;20457;-71
2021/08/03 08:17:20;;;;;;;3.60;3.30;;;17.60;99.90;;;;;;5014991;28;20193;-71
2021/08/03 08:19:45;;;;;;;4.20;3.80;;;17.60;99.90;;;;;;4996249;28;20817;-71
2021/08/03 08:22:11;;;;;;;4.30;3.40;;;17.70;99.90;;;;;;4998803;28;20186;-72
2021/08/03 08:24:38;;;;;;;4.20;3.80;;;17.60;99.90;;;;;;4998819;28;20200;-73
2021/08/03 08:27:03;;;;;;;4.37;3.97;;;17.50;99.90;;;;;;4966198;28;20465;-72
2021/08/03 08:29:29;;;;;;;5.83;3.70;;;17.50;99.90;;;;;;4982846;28;20444;-72
2021/08/03 08:31:55;;;;;;;8.70;4.60;;;17.60;99.90;;;;;;4978956;28;20495;-71
2021/08/03 08:34:21;;;;;;;4.97;4.40;;;17.50;99.90;;;;;;4972462;28;20197;-73
2021/08/03 08:36:46;;;;;;;4.80;3.60;;;17.50;99.90;;;;;;5000538;28;20229;-72
2021/08/03 08:39:12;;;;;;;3.43;3.13;;;17.60;99.90;;;;;;4996442;28;20221;-73
2021/08/03 08:41:38;;;;;;;3.10;2.60;;;17.60;99.90;;;;;;4997066;28;20648;-72
2021/08/03 08:44:04;;;;;;;3.37;3.07;;;17.50;99.90;;;;;;4997114;28;20182;-73
2021/08/03 08:46:38;;;;;;;3.53;2.90;;;17.50;99.90;;;;;;4990845;28;20473;-72
2021/08/03 08:49:05;;;;;;;3.57;3.00;;;17.60;99.90;;;;;;5013123;28;20464;-72
2021/08/03 08:51:32;;;;;;;3.20;2.90;;;17.40;99.90;;;;;;4994343;28;20482;-72
2021/08/03 08:53:59;;;;;;;3.27;2.97;;;17.40;99.90;;;;;;4992294;28;21210;-73
2021/08/03 08:56:28;;;;;;;3.77;2.90;;;17.30;99.90;;;;;;4982670;28;20450;-72
2021/08/03 08:58:53;;;;;;;7.17;2.70;;;17.30;99.90;;;;;;4992084;28;22272;-71
2021/08/03 09:01:19;;;;;;;2.40;2.20;;;17.10;99.90;;;;;;4986742;28;20460;-72
2021/08/03 09:03:48;;;;;;;6.03;3.13;;;17.20;99.90;;;;;;4987600;28;20185;-72
2021/08/03 09:06:21;;;;;;;5.70;3.10;;;17.30;99.90;;;;;;4991316;28;20221;-72
2021/08/03 09:08:49;;;;;;;4.83;3.17;;;17.30;99.90;;;;;;4996059;28;20440;-72
2021/08/03 09:11:17;;;;;;;5.30;3.27;;;17.30;99.90;;;;;;4996046;28;20432;-72
2021/08/03 09:13:51;;;;;;;3.17;2.87;;;17.30;99.90;;;;;;4991672;28;20954;-72
2021/08/03 09:16:17;;;;;;;4.20;3.50;;;17.40;99.90;;;;;;4975951;28;20530;-72
2021/08/03 09:18:44;;;;;;;5.17;3.27;;;17.40;99.90;;;;;;4998283;28;20522;-72
2021/08/03 09:21:26;;;;;;;4.20;3.37;;;17.60;99.90;;;;;;4997409;28;20512;-72
2021/08/03 09:23:53;;;;;;;6.13;3.03;;;17.80;99.90;;;;;;4997801;28;20472;-72
2021/08/03 09:26:49;;;;;;;5.47;3.80;;;17.70;99.90;;;;;;4992675;28;20817;-72
2021/08/03 09:29:18;;;;;;;3.50;2.83;;;17.80;99.90;;;;;;4994342;28;21133;-72
2021/08/03 09:32:04;;;;;;;3.30;2.90;;;17.80;99.90;;;;;;4992987;28;20472;-72
2021/08/03 09:34:30;;;;;;;6.60;2.83;;;17.70;99.90;;;;;;4993968;28;20444;-72
2021/08/03 09:36:59;;;;;;;4.30;2.83;;;17.60;99.90;;;;;;4995659;28;20510;-76
2021/08/03 09:39:37;;;;;;;3.83;2.90;;;17.50;99.90;;;;;;4995787;28;20217;-72
2021/08/03 09:42:24;;;;;;;3.43;2.63;;;17.60;99.90;;;;;;4998819;28;20451;-72
2021/08/03 09:44:58;;;;;;;2.77;2.40;;;17.90;99.90;;;;;;4993213;28;20436;-72
2021/08/03 09:47:30;;;;;;;8.10;2.67;;;17.70;99.90;;;;;;4990349;28;20432;-73
2021/08/03 09:49:58;;;;;;;5.10;2.20;;;17.70;99.90;;;;;;4975841;28;20437;-73
2021/08/03 09:52:33;;;;;;;4.10;2.10;;;17.70;99.90;;;;;;4996355;28;20428;-73
2021/08/03 09:55:15;;;;;;;3.77;2.37;;;17.60;99.90;;;;;;5004887;28;20425;-72
2021/08/03 09:57:43;;;;;;;2.30;2.10;;;18.10;99.90;;;;;;4991911;28;20487;-73
2021/08/03 10:00:36;;;;;;;2.60;2.40;;;18.10;99.90;;;;;;4994248;28;20425;-73
2021/08/03 10:03:04;;;;;;;2.20;2.00;;;18.30;99.90;;;;;;4972446;28;20488;-75
2021/08/03 10:05:30;;;;;;;2.37;1.83;;;17.90;99.90;;;;;;4991494;28;20818;-74
2021/08/03 10:07:56;;;;;;;2.23;1.67;;;18.10;99.90;;;;;;4994980;28;20417;-73
2021/08/03 10:10:22;;;;;;;2.27;1.90;;;18.50;99.90;;;;;;4994492;28;20428;-73
2021/08/03 10:12:48;;;;;;;2.30;1.90;;;18.20;99.90;;;;;;4989223;28;20434;-73
2021/08/03 10:15:14;;;;;;;2.20;2.00;;;18.40;99.90;;;;;;4992032;28;20456;-73
2021/08/03 10:17:41;;;;;;;1.90;1.70;;;18.60;99.90;;;;;;4992019;28;20469;-73
2021/08/03 10:20:09;;;;;;;2.40;2.10;;;18.60;99.90;;;;;;4994380;28;20200;-73
2021/08/03 10:22:41;;;;;;;2.07;1.70;;;18.70;99.90;;;;;;4990380;28;20503;-71
2021/08/03 10:25:13;;;;;;;2.30;1.80;;;18.80;99.90;;;;;;4989803;28;20472;-73
2021/08/03 10:27:47;;;;;;;2.30;1.87;;;18.70;99.90;;;;;;4986314;28;20511;-73
2021/08/03 10:30:28;;;;;;;2.00;1.80;;;19.10;99.90;;;;;;4991155;28;20439;-72
2021/08/03 10:33:10;;;;;;;2.10;1.90;;;18.90;99.90;;;;;;4989258;28;21106;-73
2021/08/03 10:35:58;;;;;;;3.50;1.90;;;18.90;99.90;;;;;;4988431;28;20504;-73
2021/08/03 10:38:28;;;;;;;2.00;1.80;;;18.80;99.90;;;;;;4989788;28;20495;-72
2021/08/03 10:40:57;;;;;;;2.00;1.80;;;18.80;99.90;;;;;;4993370;28;20911;-73
2021/08/03 10:43:34;;;;;;;2.10;1.70;;;19.00;99.90;;;;;;4989410;28;20852;-73
2021/08/03 10:46:06;;;;;;;5.30;1.93;;;19.30;99.90;;;;;;4989592;28;20498;-73
2021/08/03 10:48:38;;;;;;;2.40;1.90;;;19.30;99.90;;;;;;4986306;28;20467;-73
2021/08/03 10:51:12;;;;;;;2.40;1.80;;;19.20;99.90;;;;;;4989591;28;20444;-73
2021/08/03 10:53:56;;;;;;;3.10;1.83;;;19.20;99.90;;;;;;4988030;28;20460;-72
2021/08/03 10:56:25;;;;;;;3.77;2.20;;;19.20;99.90;;;;;;4992798;28;20472;-72
2021/08/03 10:59:29;;;;;;;2.70;2.50;;;19.60;99.90;;;;;;4991315;28;20463;-72
2021/08/03 11:01:55;;;;;;;2.80;2.07;;;19.60;99.90;;;;;;4983619;28;21014;-72
2021/08/03 11:04:39;;;;;;;2.30;2.03;;;19.70;99.90;;;;;;4980628;28;20429;-71
2021/08/03 11:07:27;;;;;;;2.23;2.03;;;19.90;99.90;;;;;;4983975;28;20736;-71
2021/08/03 11:09:54;;;;;;;1.83;1.70;;;20.10;99.90;;;;;;4986080;28;20433;-71
2021/08/03 11:12:44;;;;;;;6.07;1.87;;;20.40;99.90;;;;;;4991442;28;20480;-72
2021/08/03 11:15:25;;;;;;;3.07;2.20;;;20.60;99.90;;;;;;4988366;28;21161;-72
2021/08/03 11:17:55;;;;;;;2.50;2.30;;;20.80;99.90;;;;;;4985118;28;21006;-72
2021/08/03 11:20:41;;;;;;;3.80;1.90;;;21.00;99.90;;;;;;4986835;28;20440;-72
2021/08/03 11:23:13;;;;;;;2.20;2.00;;;21.10;99.90;;;;;;4990441;28;21039;-72
2021/08/03 11:25:40;;;;;;;4.03;2.03;;;21.30;99.90;;;;;;4987944;28;20445;-72
2021/08/03 11:28:11;;;;;;;3.07;2.10;;;21.50;99.90;;;;;;4971118;28;20441;-72
2021/08/03 11:30:38;;;;;;;3.07;1.80;;;21.50;99.90;;;;;;4983269;28;20952;-72
2021/08/03 11:33:05;;;;;;;1.87;1.73;;;21.40;99.90;;;;;;4972645;28;20428;-72
2021/08/03 11:35:31;;;;;;;2.63;2.00;;;21.80;99.90;;;;;;4968868;28;20503;-72
2021/08/03 11:38:05;;;;;;;2.50;2.17;;;21.80;99.90;;;;;;4986359;28;21021;-71
2021/08/03 11:40:32;;;;;;;4.40;1.77;;;21.90;99.90;;;;;;4988122;28;20442;-71
2021/08/03 11:42:59;;;;;;;3.40;2.37;;;21.80;99.90;;;;;;4987881;28;20417;-71
2021/08/03 11:45:26;;;;;;;2.97;2.23;;;21.90;99.90;;;;;;4986570;28;20433;-71
2021/08/03 11:47:53;;;;;;;3.17;2.00;;;21.90;99.90;;;;;;4989865;28;20528;-71
2021/08/03 11:50:42;;;;;;;2.50;2.23;;;22.10;99.90;;;;;;4992015;28;20435;-71
2021/08/03 11:53:11;;;;;;;2.20;2.00;;;22.40;99.90;;;;;;4990464;28;20433;-72
2021/08/03 11:55:45;;;;;;;2.53;2.10;;;22.70;99.90;;;;;;4993946;28;20477;-72
2021/08/03 11:58:12;;;;;;;2.70;2.50;;;22.80;99.90;;;;;;4995707;28;20559;-72
2021/08/03 12:00:39;;;;;;;2.83;2.50;;;23.00;99.90;;;;;;4992182;28;20491;-72
2021/08/03 12:03:04;;;;;;;2.40;2.20;;;23.00;99.90;;;;;;4989501;28;20523;-71
2021/08/03 12:05:33;;;;;;;2.60;2.40;;;23.10;99.90;;;;;;4988855;28;21086;-71
2021/08/03 12:08:14;;;;;;;2.70;2.27;;;23.10;99.90;;;;;;4991310;28;20968;-72
2021/08/03 12:10:49;;;;;;;2.30;2.10;;;23.40;99.90;;;;;;4991640;28;20431;-72
2021/08/03 12:13:30;;;;;;;2.73;2.33;;;24.00;99.90;;;;;;4992628;28;20492;-71
2021/08/03 12:15:57;;;;;;;2.33;2.20;;;24.30;99.90;;;;;;4989425;28;20539;-71
2021/08/03 12:18:23;;;;;;;3.33;2.67;;;24.30;99.90;;;;;;4990515;28;20469;-71
2021/08/03 12:20:52;;;;;;;2.70;2.50;;;24.20;99.90;;;;;;4996063;28;20456;-72
2021/08/03 12:23:21;;;;;;;3.00;2.70;;;23.80;99.90;;;;;;4992708;28;20811;-74
2021/08/03 12:25:53;;;;;;;4.73;2.57;;;23.40;99.90;;;;;;4992069;28;20449;-71
2021/08/03 12:28:32;;;;;;;3.10;2.67;;;23.20;99.90;;;;;;4994122;28;21268;-72
2021/08/03 12:31:13;;;;;;;2.90;2.60;;;22.90;99.90;;;;;;4989195;28;20914;-72
2021/08/03 12:33:38;;;;;;;3.00;2.70;;;22.70;99.90;;;;;;4994209;28;20433;-73
2021/08/03 12:36:07;;;;;;;2.73;2.50;;;22.90;99.90;;;;;;4993571;28;21003;-73
2021/08/03 12:38:33;;;;;;;2.93;2.63;;;23.20;99.90;;;;;;4991309;28;20256;-72
2021/08/03 12:40:59;;;;;;;3.67;2.40;;;23.40;99.90;;;;;;4993337;28;20421;-73
2021/08/03 12:43:41;;;;;;;2.50;2.30;;;24.20;99.90;;;;;;4991656;28;20418;-72
2021/08/03 12:46:07;;;;;;;2.50;2.30;;;24.50;99.90;;;;;;4992932;28;21091;-72
2021/08/03 12:48:33;;;;;;;2.40;2.20;;;24.40;99.90;;;;;;4990534;28;22537;-72
2021/08/03 12:51:01;;;;;;;2.30;2.10;;;24.50;99.90;;;;;;4991595;28;20633;-72
2021/08/03 12:53:29;;;;;;;3.40;2.67;;;24.00;99.90;;;;;;4974366;28;20554;-71
2021/08/03 12:56:06;;;;;;;2.57;2.37;;;23.90;99.90;;;;;;4992142;28;20460;-71
2021/08/03 12:58:44;;;;;;;2.30;2.17;;;24.20;99.90;;;;;;4986532;28;20468;-71
2021/08/03 13:01:18;;;;;;;2.30;2.10;;;23.90;99.90;;;;;;4994191;28;20436;-73
2021/08/03 13:03:47;;;;;;;2.20;2.00;;;23.40;99.90;;;;;;4999761;28;20424;-72